createdAt,value
2019-06-26T00:01:52.076Z,99.90
2019-06-26T00:04:20.454Z,99.90
2019-06-26T00:06:48.869Z,99.90
2019-06-26T00:09:17.258Z,99.90
2019-06-26T00:11:45.693Z,99.90
2019-06-26T00:14:14.090Z,99.90
2019-06-26T00:16:42.566Z,99.90
2019-06-26T00:19:10.975Z,99.90
2019-06-26T00:21:39.419Z,99.90
2019-06-26T00:24:07.896Z,99.90
2019-06-26T00:26:36.514Z,99.90
2019-06-26T00:29:04.902Z,99.90
2019-06-26T00:31:33.337Z,99.90
2019-06-26T00:34:01.860Z,99.90
2019-06-26T00:36:30.295Z,99.90
2019-06-26T00:38:58.790Z,99.90
2019-06-26T00:41:27.223Z,99.90
2019-06-26T00:43:55.617Z,99.90
2019-06-26T00:46:24.036Z,99.90
2019-06-26T00:48:52.467Z,99.90
2019-06-26T00:51:20.925Z,99.90
2019-06-26T00:53:49.336Z,99.90
2019-06-26T00:56:18.053Z,99.90
2019-06-26T00:58:46.466Z,99.90
2019-06-26T01:01:14.883Z,99.90
2019-06-26T01:03:43.298Z,99.90
2019-06-26T01:06:13.360Z,99.90
2019-06-26T01:08:41.770Z,99.90
2019-06-26T01:11:10.183Z,99.90
2019-06-26T01:13:38.578Z,99.90
2019-06-26T01:16:07.018Z,99.90
2019-06-26T01:18:35.475Z,99.90
2019-06-26T01:21:03.956Z,99.90
2019-06-26T01:23:32.357Z,99.90
2019-06-26T01:26:00.771Z,99.90
2019-06-26T01:31:10.777Z,99.90
2019-06-26T01:33:39.201Z,99.90
2019-06-26T01:36:07.628Z,99.90
2019-06-26T01:38:36.019Z,99.90
2019-06-26T01:41:04.437Z,99.90
2019-06-26T01:43:32.836Z,99.90
2019-06-26T01:46:01.243Z,99.90
2019-06-26T01:48:29.658Z,99.90
2019-06-26T01:50:58.073Z,99.90
2019-06-26T01:53:26.492Z,99.90
2019-06-26T01:55:54.882Z,99.90
2019-06-26T01:58:23.371Z,99.90
2019-06-26T02:00:51.803Z,99.90
2019-06-26T02:03:20.271Z,99.90
2019-06-26T02:05:48.876Z,99.90
2019-06-26T02:08:17.342Z,99.90
2019-06-26T02:10:45.784Z,99.90
2019-06-26T02:13:14.252Z,99.90
2019-06-26T02:15:42.706Z,99.90
2019-06-26T02:18:27.794Z,99.90
2019-06-26T02:20:56.260Z,99.90
2019-06-26T02:23:24.729Z,99.90
2019-06-26T02:25:53.163Z,99.90
2019-06-26T02:28:21.658Z,99.90
2019-06-26T02:30:50.253Z,99.90
2019-06-26T02:33:18.731Z,99.90
2019-06-26T02:35:47.499Z,99.90
2019-06-26T02:38:15.915Z,99.90
2019-06-26T02:40:44.328Z,99.90
2019-06-26T02:43:13.546Z,99.90
2019-06-26T02:45:42.030Z,99.90
2019-06-26T02:48:10.510Z,99.90
2019-06-26T02:50:38.916Z,99.90
2019-06-26T02:53:07.382Z,99.90
2019-06-26T02:55:35.776Z,99.90
2019-06-26T02:58:04.260Z,99.90
2019-06-26T03:00:32.671Z,99.90
2019-06-26T03:03:01.080Z,99.90
2019-06-26T03:05:29.484Z,99.90
2019-06-26T03:07:57.908Z,99.90
2019-06-26T03:10:26.307Z,99.90
2019-06-26T03:12:54.725Z,99.90
2019-06-26T03:15:23.114Z,99.90
2019-06-26T03:17:55.682Z,99.90
2019-06-26T03:20:24.794Z,99.90
2019-06-26T03:22:53.212Z,99.90
2019-06-26T03:25:21.697Z,99.90
2019-06-26T03:27:50.097Z,99.90
2019-06-26T03:30:18.580Z,99.90
2019-06-26T03:32:47.009Z,99.90
2019-06-26T03:35:15.400Z,99.90
2019-06-26T03:37:43.824Z,99.90
2019-06-26T03:40:12.350Z,99.90
2019-06-26T03:42:40.786Z,99.90
2019-06-26T03:45:24.431Z,99.90
2019-06-26T03:47:40.210Z,99.90
2019-06-26T03:50:09.570Z,99.90
2019-06-26T03:52:37.976Z,99.90
2019-06-26T03:55:07.327Z,99.90
2019-06-26T03:57:35.840Z,99.90
2019-06-26T04:00:06.344Z,99.90
2019-06-26T04:02:34.762Z,99.90
2019-06-26T04:05:03.856Z,99.90
2019-06-26T04:07:32.245Z,99.90
2019-06-26T04:10:00.654Z,99.90
2019-06-26T04:12:29.053Z,99.90
2019-06-26T04:14:57.467Z,99.90
2019-06-26T04:17:25.900Z,99.90
2019-06-26T04:19:54.287Z,99.90
2019-06-26T04:22:22.707Z,99.90
2019-06-26T04:24:51.104Z,99.90
2019-06-26T04:27:19.500Z,99.90
2019-06-26T04:29:47.899Z,99.90
2019-06-26T04:32:16.298Z,99.90
2019-06-26T04:34:44.698Z,99.90
2019-06-26T04:37:13.091Z,99.90
2019-06-26T04:39:41.503Z,99.90
2019-06-26T04:42:09.908Z,99.90
2019-06-26T04:44:38.323Z,99.90
2019-06-26T04:47:06.712Z,99.90
2019-06-26T04:49:35.134Z,99.90
2019-06-26T04:52:03.533Z,99.90
2019-06-26T04:54:31.952Z,99.90
2019-06-26T04:57:00.355Z,99.90
2019-06-26T04:59:28.785Z,99.90
2019-06-26T05:01:57.177Z,99.90
2019-06-26T05:04:25.570Z,99.90
2019-06-26T05:06:53.974Z,99.90
2019-06-26T05:09:22.663Z,99.90
2019-06-26T05:11:51.062Z,99.90
2019-06-26T05:14:19.474Z,99.90
2019-06-26T05:16:47.878Z,99.90
2019-06-26T05:19:16.299Z,99.90
2019-06-26T05:21:45.610Z,99.90
2019-06-26T05:24:14.017Z,99.90
2019-06-26T05:26:42.426Z,99.90
2019-06-26T05:29:10.817Z,99.90
2019-06-26T05:31:39.229Z,99.90
2019-06-26T05:34:10.687Z,99.90
2019-06-26T05:36:37.770Z,99.90
2019-06-26T05:39:07.023Z,99.90
2019-06-26T05:41:35.795Z,99.90
2019-06-26T05:44:05.179Z,99.90
2019-06-26T05:46:33.592Z,99.90
2019-06-26T05:49:02.007Z,99.90
2019-06-26T05:51:30.407Z,99.90
2019-06-26T05:53:58.818Z,99.90
2019-06-26T05:56:27.210Z,99.90
2019-06-26T05:58:55.624Z,99.90
2019-06-26T06:01:24.022Z,99.90
2019-06-26T06:03:52.424Z,99.90
2019-06-26T06:06:20.954Z,99.90
2019-06-26T06:08:49.375Z,99.90
2019-06-26T06:11:17.838Z,99.90
2019-06-26T06:13:46.285Z,99.90
2019-06-26T06:16:14.654Z,99.90
2019-06-26T06:18:43.061Z,99.90
2019-06-26T06:21:11.490Z,99.90
2019-06-26T06:23:39.892Z,99.90
2019-06-26T06:26:08.328Z,99.90
2019-06-26T06:28:36.789Z,99.90
2019-06-26T06:31:05.270Z,99.90
2019-06-26T06:33:33.672Z,99.90
2019-06-26T06:36:02.087Z,99.90
2019-06-26T06:38:30.500Z,99.90
2019-06-26T06:40:58.889Z,99.90
2019-06-26T06:43:27.310Z,99.90
2019-06-26T06:45:55.716Z,99.90
2019-06-26T06:48:25.836Z,99.90
2019-06-26T06:50:54.224Z,99.90
2019-06-26T06:53:22.639Z,99.90
2019-06-26T06:55:51.059Z,99.90
2019-06-26T06:58:19.465Z,99.90
2019-06-26T07:00:47.860Z,99.90
2019-06-26T07:03:16.298Z,99.90
2019-06-26T07:05:44.685Z,99.90
2019-06-26T07:08:13.176Z,99.90
2019-06-26T07:10:41.561Z,99.90
2019-06-26T07:13:09.985Z,99.90
2019-06-26T07:15:38.409Z,99.90
2019-06-26T07:18:06.861Z,99.90
2019-06-26T07:20:35.285Z,99.90
2019-06-26T07:23:03.755Z,99.90
2019-06-26T07:25:32.151Z,99.90
2019-06-26T07:28:01.982Z,99.90
2019-06-26T07:30:30.741Z,99.90
2019-06-26T07:32:59.154Z,99.90
2019-06-26T07:39:08.653Z,99.50
2019-06-26T07:41:37.068Z,99.50
2019-06-26T07:44:05.491Z,99.40
2019-06-26T07:57:00.440Z,98.00
2019-06-26T07:59:28.961Z,97.50
2019-06-26T08:01:57.373Z,97.60
2019-06-26T08:04:25.778Z,97.50
2019-06-26T08:06:54.178Z,97.30
2019-06-26T08:09:22.607Z,97.40
2019-06-26T08:11:51.007Z,97.30
2019-06-26T08:14:19.488Z,97.00
2019-06-26T08:16:47.909Z,96.80
2019-06-26T08:19:16.319Z,96.20
2019-06-26T08:21:46.762Z,95.60
2019-06-26T08:24:14.839Z,95.70
2019-06-26T08:26:43.244Z,95.70
2019-06-26T08:29:11.659Z,95.30
2019-06-26T08:31:40.055Z,95.40
2019-06-26T08:34:08.475Z,95.40
2019-06-26T08:36:36.867Z,94.80
2019-06-26T08:39:07.028Z,94.60
2019-06-26T08:41:35.430Z,94.40
2019-06-26T08:44:04.873Z,94.10
2019-06-26T08:46:33.270Z,94.10
2019-06-26T08:49:01.735Z,93.50
2019-06-26T08:51:30.179Z,93.60
2019-06-26T08:53:58.587Z,93.30
2019-06-26T08:56:26.987Z,92.90
2019-06-26T08:58:55.404Z,92.60
2019-06-26T09:01:23.794Z,92.40
2019-06-26T09:03:52.206Z,92.20
2019-06-26T09:06:20.604Z,91.90
2019-06-26T09:08:49.006Z,91.80
2019-06-26T09:11:17.422Z,92.20
2019-06-26T09:13:45.839Z,92.20
2019-06-26T09:16:14.298Z,91.40
2019-06-26T09:18:42.715Z,91.90
2019-06-26T09:21:11.119Z,92.00
2019-06-26T09:23:39.529Z,92.00
2019-06-26T09:26:07.918Z,92.10
2019-06-26T09:28:36.339Z,92.00
2019-06-26T09:31:04.907Z,91.30
2019-06-26T09:33:33.307Z,90.90
2019-06-26T09:36:01.778Z,91.00
2019-06-26T09:38:30.183Z,90.90
2019-06-26T09:40:58.587Z,90.90
2019-06-26T09:43:26.988Z,91.00
2019-06-26T09:45:55.391Z,90.40
2019-06-26T09:48:23.790Z,90.60
2019-06-26T09:50:52.204Z,90.40
2019-06-26T09:53:20.642Z,90.50
2019-06-26T09:55:49.030Z,90.20
2019-06-26T09:58:17.443Z,90.30
2019-06-26T10:00:45.856Z,89.70
2019-06-26T10:03:14.318Z,89.50
2019-06-26T10:05:42.707Z,89.30
2019-06-26T10:08:11.115Z,89.90
2019-06-26T10:10:39.535Z,89.70
2019-06-26T10:13:07.949Z,89.50
2019-06-26T10:15:36.355Z,89.70
2019-06-26T10:18:04.908Z,90.00
2019-06-26T10:20:33.311Z,89.00
2019-06-26T10:23:01.725Z,88.20
2019-06-26T10:25:30.116Z,88.60
2019-06-26T10:27:58.625Z,88.40
2019-06-26T10:30:27.102Z,87.80
2019-06-26T10:32:55.492Z,86.90
2019-06-26T10:35:23.891Z,85.90
2019-06-26T10:37:52.375Z,86.80
2019-06-26T10:40:21.104Z,86.80
2019-06-26T10:42:49.520Z,85.70
2019-06-26T10:45:18.173Z,84.40
2019-06-26T10:47:46.580Z,84.00
2019-06-26T10:50:15.044Z,84.50
2019-06-26T10:52:43.443Z,84.10
2019-06-26T10:55:12.034Z,82.80
2019-06-26T10:57:40.490Z,82.20
2019-06-26T11:00:10.227Z,82.30
2019-06-26T11:02:38.919Z,81.30
2019-06-26T11:05:08.483Z,80.50
2019-06-26T11:07:36.890Z,81.20
2019-06-26T11:10:07.718Z,77.80
2019-06-26T11:12:36.139Z,74.60
2019-06-26T11:15:06.759Z,75.10
2019-06-26T11:17:35.159Z,74.20
2019-06-26T11:20:08.616Z,73.20
2019-06-26T11:22:37.094Z,72.40
2019-06-26T11:25:07.435Z,69.10
2019-06-26T11:27:35.951Z,67.60
2019-06-26T11:30:09.656Z,68.00
2019-06-26T11:32:38.092Z,65.30
2019-06-26T11:35:07.849Z,65.80
2019-06-26T11:37:36.583Z,65.70
2019-06-26T11:40:08.952Z,64.80
2019-06-26T11:42:37.354Z,64.30
2019-06-26T11:45:07.692Z,64.00
2019-06-26T11:47:36.482Z,63.20
2019-06-26T11:50:07.394Z,62.00
2019-06-26T11:52:35.843Z,61.70
2019-06-26T11:55:06.897Z,61.40
2019-06-26T11:57:35.279Z,61.40
2019-06-26T12:00:09.588Z,62.70
2019-06-26T12:02:37.977Z,60.00
2019-06-26T12:05:07.218Z,60.70
2019-06-26T12:07:35.613Z,59.60
2019-06-26T12:10:07.329Z,60.30
2019-06-26T12:12:35.899Z,58.90
2019-06-26T12:15:05.267Z,59.10
2019-06-26T12:17:33.670Z,59.40
2019-06-26T12:20:17.257Z,58.10
2019-06-26T12:22:32.198Z,58.20
2019-06-26T12:25:00.926Z,58.00
2019-06-26T12:27:29.371Z,56.80
2019-06-26T12:29:57.779Z,56.90
2019-06-26T12:32:26.209Z,57.50
2019-06-26T12:34:54.612Z,56.20
2019-06-26T12:37:36.622Z,56.80
2019-06-26T12:39:53.134Z,57.80
2019-06-26T12:42:21.526Z,56.50
2019-06-26T12:44:49.923Z,57.20
2019-06-26T12:47:18.318Z,56.80
2019-06-26T12:49:46.714Z,57.10
2019-06-26T12:52:17.080Z,57.50
2019-06-26T12:54:45.243Z,56.00
2019-06-26T12:57:13.660Z,56.10
2019-06-26T12:59:56.092Z,55.80
2019-06-26T13:02:12.230Z,57.20
2019-06-26T13:04:44.364Z,55.90
2019-06-26T13:07:10.807Z,56.40
2019-06-26T13:09:39.209Z,56.40
2019-06-26T13:12:07.601Z,56.00
2019-06-26T13:14:36.065Z,56.30
2019-06-26T13:17:04.646Z,55.70
2019-06-26T13:19:33.091Z,55.70
2019-06-26T13:22:01.488Z,54.30
2019-06-26T13:24:29.876Z,54.30
2019-06-26T13:26:58.278Z,54.30
2019-06-26T13:29:26.679Z,54.90
2019-06-26T13:31:55.087Z,54.90
2019-06-26T13:34:23.469Z,54.30
2019-06-26T13:36:51.877Z,54.80
2019-06-26T13:39:20.279Z,54.90
2019-06-26T13:41:48.676Z,55.20
2019-06-26T13:44:17.084Z,55.70
2019-06-26T13:46:45.474Z,54.90
2019-06-26T13:49:16.486Z,55.20
2019-06-26T13:51:44.054Z,54.00
2019-06-26T13:54:12.471Z,54.40
2019-06-26T13:56:40.888Z,54.00
2019-06-26T13:59:09.268Z,54.10
2019-06-26T14:01:37.676Z,55.00
2019-06-26T14:04:06.075Z,55.10
2019-06-26T14:06:34.470Z,55.30
2019-06-26T14:09:02.929Z,55.10
2019-06-26T14:11:31.347Z,54.50
2019-06-26T14:13:59.756Z,54.80
2019-06-26T14:16:29.917Z,54.50
2019-06-26T14:18:58.338Z,55.10
2019-06-26T14:21:26.789Z,55.60
2019-06-26T14:23:55.178Z,54.10
2019-06-26T14:26:23.584Z,53.00
2019-06-26T14:28:54.043Z,53.10
2019-06-26T14:31:22.099Z,52.80
2019-06-26T14:33:50.490Z,53.30
2019-06-26T14:36:18.967Z,53.40
2019-06-26T14:38:47.377Z,53.10
2019-06-26T14:41:15.800Z,52.20
2019-06-26T14:43:44.187Z,52.30
2019-06-26T14:46:12.608Z,52.40
2019-06-26T14:48:41.021Z,52.90
2019-06-26T14:51:09.425Z,52.10
2019-06-26T14:53:37.828Z,53.00
2019-06-26T14:56:06.227Z,52.20
2019-06-26T14:58:36.362Z,52.50
2019-06-26T15:01:04.914Z,52.00
2019-06-26T15:03:33.318Z,52.90
2019-06-26T15:06:15.392Z,52.40
2019-06-26T15:08:31.869Z,51.80
2019-06-26T15:11:00.265Z,52.70
2019-06-26T15:13:28.674Z,53.80
2019-06-26T15:15:57.083Z,53.50
2019-06-26T15:18:25.474Z,53.90
2019-06-26T15:20:53.879Z,53.70
2019-06-26T15:23:22.300Z,54.60
2019-06-26T15:25:50.740Z,54.00
2019-06-26T15:28:19.184Z,53.30
2019-06-26T15:30:47.583Z,53.50
2019-06-26T15:33:15.999Z,54.40
2019-06-26T15:35:44.469Z,53.70
2019-06-26T15:38:12.874Z,53.90
2019-06-26T15:40:41.301Z,53.10
2019-06-26T15:43:09.707Z,53.60
2019-06-26T15:45:38.111Z,54.00
2019-06-26T15:48:06.515Z,54.40
2019-06-26T15:50:34.916Z,54.40
2019-06-26T15:53:03.801Z,53.90
2019-06-26T15:55:32.292Z,55.00
2019-06-26T15:58:00.922Z,55.50
2019-06-26T16:00:29.333Z,54.60
2019-06-26T16:02:57.752Z,54.20
2019-06-26T16:05:26.189Z,54.60
2019-06-26T16:07:54.644Z,55.10
2019-06-26T16:10:23.040Z,55.00
2019-06-26T16:12:51.475Z,55.40
2019-06-26T16:15:19.957Z,55.30
2019-06-26T16:17:52.892Z,55.10
2019-06-26T16:20:21.335Z,54.30
2019-06-26T16:22:49.802Z,54.00
2019-06-26T16:25:18.293Z,54.20
2019-06-26T16:27:46.691Z,53.30
2019-06-26T16:30:15.630Z,51.60
2019-06-26T16:32:44.058Z,50.30
2019-06-26T16:35:12.616Z,50.10
2019-06-26T16:37:41.081Z,49.40
2019-06-26T16:40:09.491Z,48.70
2019-06-26T16:42:37.902Z,48.20
2019-06-26T16:45:07.531Z,47.70
2019-06-26T16:47:35.972Z,47.20
2019-06-26T16:50:05.954Z,46.80
2019-06-26T16:52:48.005Z,46.70
2019-06-26T16:55:06.131Z,47.10
2019-06-26T16:57:34.608Z,47.50
2019-06-26T17:00:09.354Z,47.60
2019-06-26T17:02:34.701Z,47.70
2019-06-26T17:05:03.162Z,48.10
2019-06-26T17:07:31.633Z,47.60
2019-06-26T17:10:00.035Z,48.00
2019-06-26T17:12:28.438Z,48.30
2019-06-26T17:14:56.832Z,48.40
2019-06-26T17:17:25.237Z,49.40
2019-06-26T17:19:53.635Z,49.80
2019-06-26T17:22:22.052Z,49.00
2019-06-26T17:24:50.466Z,49.70
2019-06-26T17:27:18.872Z,50.20
2019-06-26T17:29:47.283Z,49.80
2019-06-26T17:32:15.673Z,50.20
2019-06-26T17:34:44.088Z,49.80
2019-06-26T17:37:12.488Z,50.50
2019-06-26T17:39:40.904Z,50.10
2019-06-26T17:42:09.308Z,50.40
2019-06-26T17:44:37.720Z,50.70
2019-06-26T17:47:06.109Z,51.10
2019-06-26T17:49:34.519Z,51.60
2019-06-26T17:52:02.990Z,51.70
2019-06-26T17:54:31.465Z,52.60
2019-06-26T17:56:59.859Z,52.20
2019-06-26T17:59:28.267Z,53.00
2019-06-26T18:01:56.675Z,54.30
2019-06-26T18:04:25.062Z,54.30
2019-06-26T18:06:53.449Z,54.60
2019-06-26T18:09:21.902Z,55.30
2019-06-26T18:11:50.372Z,55.20
2019-06-26T18:14:18.788Z,55.70
2019-06-26T18:16:47.178Z,56.20
2019-06-26T18:19:15.603Z,57.10
2019-06-26T18:21:43.996Z,58.70
2019-06-26T18:24:12.401Z,57.50
2019-06-26T18:26:40.797Z,58.50
2019-06-26T18:29:09.215Z,60.50
2019-06-26T18:31:37.618Z,64.80
2019-06-26T18:34:06.038Z,66.20
2019-06-26T18:36:34.458Z,70.20
2019-06-26T18:39:02.876Z,71.30
2019-06-26T18:41:31.257Z,73.30
2019-06-26T18:43:59.676Z,76.40
2019-06-26T18:46:28.144Z,75.80
2019-06-26T18:48:56.562Z,77.00
2019-06-26T18:51:25.031Z,80.70
2019-06-26T18:53:54.112Z,80.30
2019-06-26T18:56:22.530Z,84.40
2019-06-26T18:58:50.965Z,87.20
2019-06-26T19:01:19.371Z,89.50
2019-06-26T19:03:47.767Z,91.00
2019-06-26T19:06:16.185Z,91.60
2019-06-26T19:08:44.600Z,92.90
2019-06-26T19:11:12.989Z,93.10
2019-06-26T19:13:41.407Z,94.00
2019-06-26T19:16:09.809Z,94.80
2019-06-26T19:18:38.210Z,94.60
2019-06-26T19:21:06.622Z,94.80
2019-06-26T19:23:35.111Z,95.30
2019-06-26T19:26:03.591Z,95.90
2019-06-26T19:28:32.346Z,96.10
2019-06-26T19:31:00.722Z,96.20
2019-06-26T19:33:29.130Z,96.80
2019-06-26T19:35:57.533Z,97.00
2019-06-26T19:38:25.959Z,97.50
2019-06-26T19:40:54.354Z,97.90
2019-06-26T19:43:22.766Z,98.50
2019-06-26T19:45:51.198Z,98.70
2019-06-26T19:48:19.595Z,99.10
2019-06-26T19:50:48.011Z,99.10
2019-06-26T19:53:16.417Z,99.50
2019-06-26T19:55:44.823Z,99.80
2019-06-26T19:58:13.230Z,99.60
2019-06-26T20:00:41.641Z,99.90
2019-06-26T20:03:10.038Z,99.90
2019-06-26T20:05:38.456Z,99.90
2019-06-26T20:08:06.867Z,99.90
2019-06-26T20:10:35.301Z,99.90
2019-06-26T20:13:03.772Z,99.90
2019-06-26T20:15:32.313Z,99.90
2019-06-26T20:18:03.983Z,99.90
2019-06-26T20:20:30.910Z,99.90
2019-06-26T20:22:59.298Z,99.90
2019-06-26T20:25:27.725Z,99.90
2019-06-26T20:27:57.103Z,99.90
2019-06-26T20:30:29.004Z,99.90
2019-06-26T20:32:57.416Z,99.90
2019-06-26T20:35:25.820Z,99.90
2019-06-26T20:37:54.221Z,99.90
2019-06-26T20:40:22.622Z,99.90
2019-06-26T20:42:51.017Z,99.90
2019-06-26T20:45:20.176Z,99.90
2019-06-26T20:47:48.593Z,99.90
2019-06-26T20:50:17.370Z,99.90
2019-06-26T20:52:45.793Z,99.90
2019-06-26T20:55:14.186Z,99.90
2019-06-26T20:57:42.613Z,99.90
2019-06-26T21:00:11.676Z,99.90
2019-06-26T21:02:40.139Z,99.90
2019-06-26T21:05:09.090Z,99.90
2019-06-26T21:07:37.509Z,99.90
2019-06-26T21:10:06.150Z,99.90
2019-06-26T21:12:34.643Z,99.90
2019-06-26T21:15:03.421Z,99.90
2019-06-26T21:17:31.816Z,99.90
2019-06-26T21:20:00.226Z,99.90
2019-06-26T21:22:28.627Z,99.90
2019-06-26T21:24:57.046Z,99.90
2019-06-26T21:27:25.459Z,99.90
2019-06-26T21:29:53.883Z,99.90
2019-06-26T21:32:22.276Z,99.90
2019-06-26T21:34:50.691Z,99.90
2019-06-26T21:37:19.115Z,99.90
2019-06-26T21:39:47.519Z,99.90
2019-06-26T21:42:16.347Z,99.90
2019-06-26T21:44:44.750Z,99.90
2019-06-26T21:47:13.152Z,99.90
2019-06-26T21:49:41.565Z,99.90
2019-06-26T21:52:09.970Z,99.90
2019-06-26T21:54:38.379Z,99.90
2019-06-26T21:57:09.303Z,99.90
2019-06-26T21:59:36.922Z,99.90
2019-06-26T22:02:05.419Z,99.90
2019-06-26T22:04:33.826Z,99.90
2019-06-26T22:07:02.236Z,99.90
2019-06-26T22:09:30.668Z,99.90
2019-06-26T22:12:00.853Z,99.90
2019-06-26T22:14:29.518Z,99.90
2019-06-26T22:16:57.937Z,99.90
2019-06-26T22:19:26.413Z,99.90
2019-06-26T22:21:54.826Z,99.90
2019-06-26T22:24:23.244Z,99.90
2019-06-26T22:26:51.659Z,99.90
2019-06-26T22:29:20.071Z,99.90
2019-06-26T22:31:48.478Z,99.90
2019-06-26T22:34:16.899Z,99.90
2019-06-26T22:36:51.747Z,99.90
2019-06-26T22:39:15.434Z,99.90
2019-06-26T22:41:43.865Z,99.90
2019-06-26T22:44:12.265Z,99.90
2019-06-26T22:46:40.749Z,99.90
2019-06-26T22:49:09.142Z,99.90
2019-06-26T22:51:37.566Z,99.90
2019-06-26T22:54:05.963Z,99.90
2019-06-26T22:56:34.372Z,99.90
2019-06-26T22:59:02.782Z,99.90
2019-06-26T23:01:31.193Z,99.90
2019-06-26T23:03:59.656Z,99.90
2019-06-26T23:06:28.085Z,99.90
2019-06-26T23:08:56.483Z,99.90
2019-06-26T23:11:24.948Z,99.90
2019-06-26T23:13:53.364Z,99.90
2019-06-26T23:16:21.775Z,99.90
2019-06-26T23:18:50.182Z,99.90
2019-06-26T23:21:18.581Z,99.90
2019-06-26T23:23:46.977Z,99.90
2019-06-26T23:26:24.117Z,99.90
2019-06-26T23:28:45.504Z,99.90
2019-06-26T23:31:13.909Z,99.90
2019-06-26T23:33:42.311Z,99.90
2019-06-26T23:36:10.728Z,99.90
2019-06-26T23:38:39.142Z,99.90
2019-06-26T23:41:07.624Z,99.90
2019-06-26T23:43:36.035Z,99.90
2019-06-26T23:46:04.452Z,99.90
2019-06-26T23:48:32.845Z,99.90
2019-06-26T23:51:01.330Z,99.90
2019-06-26T23:53:29.775Z,99.90
2019-06-26T23:55:58.203Z,99.90
2019-06-26T23:58:26.599Z,99.90
